Time;durP1;ratioP1;P1;durP2;ratioP2;P2;SDS_P1;SDS_P2;PMS_P1;PMS_P2;Temp;Humidity;BMP_temperature;BMP_pressure;BME280_temperature;BME280_humidity;BME280_pressure;Samples;Min_cycle;Max_cycle;Signal;HPM_P1;HPM_P2
2022/09/03 00:01:17;;;;;;;0.20;0.20;;;14.80;99.90;;;;;;5034244;28;20104;-77
2022/09/03 00:03:49;;;;;;;0.10;0.10;;;14.90;99.90;;;;;;5033962;28;20446;-77
2022/09/03 00:06:22;;;;;;;0.20;0.20;;;15.00;99.90;;;;;;5034061;28;20028;-77
2022/09/03 00:08:55;;;;;;;0.10;0.10;;;15.00;99.90;;;;;;5034062;28;20473;-78
2022/09/03 00:11:34;;;;;;;0.10;0.10;;;15.20;99.90;;;;;;5051757;28;20048;-77
2022/09/03 00:14:19;;;;;;;0.10;0.10;;;15.10;99.90;;;;;;5051782;28;20032;-77
2022/09/03 00:16:59;;;;;;;0.10;0.10;;;15.10;99.90;;;;;;5033620;28;20032;-77
2022/09/03 00:19:36;;;;;;;0.10;0.10;;;15.10;99.90;;;;;;5034297;28;20036;-77
2022/09/03 00:22:09;;;;;;;0.20;0.20;;;15.00;99.90;;;;;;5033839;28;20095;-77
2022/09/03 00:24:39;;;;;;;0.10;0.10;;;14.90;99.90;;;;;;5034088;28;20514;-77
2022/09/03 00:27:13;;;;;;;0.10;0.10;;;14.90;99.90;;;;;;5017166;28;20021;-79
2022/09/03 00:29:48;;;;;;;0.20;0.20;;;15.00;99.90;;;;;;5033679;28;20032;-77
2022/09/03 00:32:33;;;;;;;0.10;0.10;;;14.90;99.90;;;;;;5033741;28;20029;-76
2022/09/03 00:35:10;;;;;;;0.10;0.10;;;15.00;99.90;;;;;;5023329;28;20029;-77
2022/09/03 00:37:35;;;;;;;0.10;0.10;;;15.00;99.90;;;;;;5051523;28;20143;-77
2022/09/03 00:40:02;;;;;;;0.10;0.10;;;15.00;99.90;;;;;;5053218;28;20107;-78
2022/09/03 00:42:42;;;;;;;0.10;0.10;;;14.80;99.90;;;;;;5037295;28;20115;-77
2022/09/03 00:45:24;;;;;;;0.10;0.10;;;14.90;99.90;;;;;;5037326;28;20096;-77
2022/09/03 00:48:10;;;;;;;0.10;0.10;;;14.90;99.90;;;;;;5037376;28;20035;-77
2022/09/03 00:51:12;;;;;;;0.15;0.15;;;15.20;99.90;;;;;;5036976;28;20512;-78
2022/09/03 00:53:56;;;;;;;0.15;0.15;;;15.00;99.90;;;;;;5055092;28;20032;-77
2022/09/03 00:56:21;;;;;;;0.20;0.20;;;15.00;99.90;;;;;;5036971;28;20037;-78
2022/09/03 00:59:11;;;;;;;0.20;0.20;;;14.80;99.90;;;;;;5055025;28;20031;-76
2022/09/03 01:01:50;;;;;;;0.10;0.10;;;14.60;99.90;;;;;;5054930;28;20298;-77
2022/09/03 01:04:36;;;;;;;0.10;0.10;;;14.40;99.90;;;;;;5054955;28;20055;-80
2022/09/03 01:07:20;;;;;;;0.10;0.10;;;14.30;99.90;;;;;;5054825;28;20075;-76
2022/09/03 01:10:02;;;;;;;0.10;0.10;;;14.60;99.90;;;;;;5054890;28;20025;-77
2022/09/03 01:12:40;;;;;;;0.17;0.17;;;14.60;99.90;;;;;;5054832;28;20059;-76
2022/09/03 01:15:23;;;;;;;0.50;0.50;;;14.70;99.90;;;;;;5036305;28;20035;-78
2022/09/03 01:18:07;;;;;;;0.20;0.20;;;15.00;99.90;;;;;;5036848;28;20028;-77
2022/09/03 01:20:57;;;;;;;0.10;0.10;;;14.90;99.90;;;;;;5054740;28;20021;-77
2022/09/03 01:23:56;;;;;;;0.10;0.10;;;14.70;99.90;;;;;;5036752;28;20028;-77
2022/09/03 01:26:30;;;;;;;0.10;0.10;;;14.80;99.90;;;;;;5054402;28;20525;-78
2022/09/03 01:29:21;;;;;;;0.10;0.10;;;14.90;99.90;;;;;;5054544;28;20423;-80
2022/09/03 01:32:14;;;;;;;0.15;0.15;;;15.10;99.90;;;;;;5054373;28;20029;-77
2022/09/03 01:35:02;;;;;;;0.20;0.20;;;15.30;99.90;;;;;;5054457;28;20078;-77
2022/09/03 01:37:43;;;;;;;0.10;0.10;;;15.10;99.90;;;;;;5054349;28;20021;-79
2022/09/03 01:40:32;;;;;;;0.10;0.10;;;14.90;99.90;;;;;;5054316;28;20384;-77
2022/09/03 01:43:34;;;;;;;0.10;0.10;;;14.80;99.90;;;;;;5054194;28;20029;-80
2022/09/03 01:46:00;;;;;;;0.17;0.17;;;14.80;99.90;;;;;;5028168;28;20036;-77
2022/09/03 01:48:39;;;;;;;0.55;0.47;;;14.70;99.90;;;;;;5054230;28;20290;-76
2022/09/03 01:51:19;;;;;;;0.38;0.38;;;14.70;99.90;;;;;;5053640;28;20029;-79
2022/09/03 01:54:12;;;;;;;0.55;0.55;;;14.70;99.90;;;;;;5054000;28;20025;-76
2022/09/03 01:57:07;;;;;;;0.15;0.15;;;14.80;99.90;;;;;;5019438;28;20052;-76
2022/09/03 01:59:50;;;;;;;0.10;0.10;;;15.00;99.90;;;;;;5028105;28;20119;-78
2022/09/03 02:02:24;;;;;;;0.10;0.10;;;14.90;99.90;;;;;;5053924;28;20061;-77
2022/09/03 02:05:13;;;;;;;0.10;0.10;;;15.00;99.90;;;;;;5053644;28;20036;-77
2022/09/03 02:07:54;;;;;;;0.10;0.10;;;14.90;99.90;;;;;;5035941;28;20023;-78
2022/09/03 02:10:48;;;;;;;0.10;0.10;;;14.90;99.90;;;;;;5035838;28;20021;-76
2022/09/03 02:13:30;;;;;;;0.10;0.10;;;14.90;99.90;;;;;;5053604;28;20025;-78
2022/09/03 02:16:01;;;;;;;0.10;0.10;;;15.00;99.90;;;;;;5019128;28;20025;-78
2022/09/03 02:18:35;;;;;;;0.10;0.10;;;15.20;99.90;;;;;;5035833;28;20025;-78
2022/09/03 02:21:01;;;;;;;0.50;0.50;;;15.20;99.90;;;;;;5035572;28;20025;-79
2022/09/03 02:23:27;;;;;;;0.00;0.00;;;15.30;99.90;;;;;;5053320;28;20024;-80
2022/09/03 02:25:59;;;;;;;0.30;0.30;;;15.20;99.90;;;;;;5053170;28;20380;-80
2022/09/03 02:28:27;;;;;;;0.15;0.15;;;15.10;99.90;;;;;;5035528;28;20025;-77
2022/09/03 02:30:53;;;;;;;0.10;0.10;;;15.10;99.90;;;;;;5053309;28;20025;-76
2022/09/03 02:33:19;;;;;;;0.10;0.10;;;15.10;99.90;;;;;;5035498;28;20096;-77
2022/09/03 02:35:46;;;;;;;0.20;0.20;;;15.10;99.90;;;;;;5018684;28;20020;-77
2022/09/03 02:38:18;;;;;;;0.10;0.10;;;15.10;99.90;;;;;;5035485;28;20029;-77
2022/09/03 02:40:44;;;;;;;0.10;0.10;;;15.10;99.90;;;;;;5035350;28;20101;-77
2022/09/03 02:43:21;;;;;;;0.10;0.10;;;15.30;99.90;;;;;;5052958;28;20048;-78
2022/09/03 02:45:49;;;;;;;0.52;0.52;;;15.30;99.90;;;;;;5052836;28;20029;-77
2022/09/03 02:48:20;;;;;;;0.10;0.10;;;15.20;99.90;;;;;;5035098;28;20404;-77
2022/09/03 02:50:46;;;;;;;0.10;0.10;;;14.90;99.90;;;;;;5018684;28;20068;-80
2022/09/03 02:53:11;;;;;;;0.10;0.10;;;15.00;99.90;;;;;;5034999;28;20045;-76
2022/09/03 02:55:37;;;;;;;0.10;0.10;;;15.20;99.90;;;;;;5052639;28;20028;-77
2022/09/03 02:58:05;;;;;;;0.10;0.10;;;15.40;99.90;;;;;;5035071;28;20055;-77
2022/09/03 03:00:32;;;;;;;0.10;0.10;;;15.40;99.90;;;;;;5018264;28;20124;-77
2022/09/03 03:02:58;;;;;;;1.00;0.57;;;15.10;99.90;;;;;;5051865;28;20477;-77
2022/09/03 03:05:34;;;;;;;0.10;0.10;;;15.00;99.90;;;;;;5052643;28;20035;-76
2022/09/03 03:08:00;;;;;;;0.20;0.20;;;14.90;99.90;;;;;;5018250;28;20115;-79
2022/09/03 03:10:26;;;;;;;0.10;0.10;;;15.10;99.90;;;;;;5018240;28;20523;-80
2022/09/03 03:12:52;;;;;;;0.10;0.10;;;15.10;99.90;;;;;;5034550;28;20020;-77
2022/09/03 03:15:18;;;;;;;8.95;8.43;;;15.20;99.90;;;;;;5051965;28;20377;-76
2022/09/03 03:17:44;;;;;;;0.10;0.10;;;15.20;99.90;;;;;;5052718;28;20021;-77
2022/09/03 03:20:10;;;;;;;0.10;0.10;;;15.30;99.90;;;;;;5035071;28;20079;-77
2022/09/03 03:22:35;;;;;;;0.10;0.10;;;15.30;99.90;;;;;;5052514;28;20131;-76
2022/09/03 03:25:01;;;;;;;0.10;0.10;;;15.40;99.90;;;;;;5052153;28;20451;-77
2022/09/03 03:27:27;;;;;;;0.10;0.10;;;15.40;99.90;;;;;;5018244;28;20083;-77
2022/09/03 03:29:53;;;;;;;0.10;0.10;;;15.40;99.90;;;;;;5018011;28;20503;-77
2022/09/03 03:32:19;;;;;;;0.10;0.10;;;15.50;99.90;;;;;;5034382;28;20024;-78
2022/09/03 03:34:45;;;;;;;0.10;0.10;;;15.50;99.90;;;;;;5052187;28;20021;-80
2022/09/03 03:37:11;;;;;;;0.30;0.30;;;15.40;99.90;;;;;;5034108;28;20393;-76
2022/09/03 03:39:36;;;;;;;0.20;0.20;;;15.50;99.90;;;;;;5034213;28;20416;-77
2022/09/03 03:42:02;;;;;;;0.10;0.10;;;15.50;99.90;;;;;;5051995;28;20052;-77
2022/09/03 03:44:28;;;;;;;0.17;0.17;;;15.50;99.90;;;;;;5017766;28;20484;-77
2022/09/03 03:46:54;;;;;;;0.10;0.10;;;15.50;99.90;;;;;;5017789;28;20059;-77
2022/09/03 03:49:20;;;;;;;0.20;0.20;;;15.40;99.90;;;;;;5017593;28;20445;-77
2022/09/03 03:51:45;;;;;;;0.10;0.10;;;15.40;99.90;;;;;;5033970;28;20083;-78
2022/09/03 03:54:11;;;;;;;0.10;0.10;;;15.50;99.90;;;;;;5033966;28;20107;-80
2022/09/03 03:56:37;;;;;;;0.10;0.10;;;15.60;99.90;;;;;;5033987;28;20090;-78
2022/09/03 03:59:03;;;;;;;0.10;0.10;;;15.60;99.90;;;;;;5034066;28;20078;-77
2022/09/03 04:01:29;;;;;;;0.10;0.10;;;15.40;99.90;;;;;;5033836;28;20089;-77
2022/09/03 04:03:57;;;;;;;0.05;0.05;;;15.30;99.90;;;;;;5017492;28;20486;-80
2022/09/03 04:06:23;;;;;;;0.13;0.13;;;15.40;99.90;;;;;;5033754;28;20025;-77
2022/09/03 04:08:49;;;;;;;0.20;0.20;;;15.60;99.90;;;;;;5051818;28;20025;-77
2022/09/03 04:11:18;;;;;;;0.10;0.10;;;15.50;99.90;;;;;;5033947;28;20017;-77
2022/09/03 04:13:45;;;;;;;0.10;0.10;;;15.50;99.90;;;;;;5051643;28;20029;-77
2022/09/03 04:16:17;;;;;;;0.17;0.17;;;15.40;99.90;;;;;;5020667;28;20120;-77
2022/09/03 04:18:44;;;;;;;0.10;0.10;;;15.40;99.90;;;;;;5021451;28;20029;-77
2022/09/03 04:21:13;;;;;;;0.10;0.10;;;15.50;99.90;;;;;;5055641;28;20415;-79
2022/09/03 04:23:41;;;;;;;0.10;0.10;;;15.40;99.90;;;;;;5055843;28;20090;-77
2022/09/03 04:26:08;;;;;;;0.10;0.10;;;15.50;99.90;;;;;;5021165;28;20032;-77
2022/09/03 04:28:34;;;;;;;0.20;0.20;;;15.40;99.90;;;;;;5037882;28;20075;-79
2022/09/03 04:31:02;;;;;;;0.10;0.10;;;15.00;99.90;;;;;;5037994;28;20420;-80
2022/09/03 04:33:29;;;;;;;0.38;0.35;;;14.80;99.90;;;;;;5037609;28;20024;-77
2022/09/03 04:36:08;;;;;;;0.55;0.55;;;14.80;99.90;;;;;;5055552;28;20021;-77
2022/09/03 04:38:36;;;;;;;0.10;0.10;;;14.80;99.90;;;;;;5037540;28;20087;-79
2022/09/03 04:41:04;;;;;;;0.10;0.10;;;14.80;99.90;;;;;;5055271;28;20120;-79
2022/09/03 04:43:30;;;;;;;0.30;0.30;;;14.50;99.90;;;;;;5055242;28;20017;-77
2022/09/03 04:46:00;;;;;;;0.25;0.25;;;14.10;99.90;;;;;;5054984;28;20019;-76
2022/09/03 04:48:27;;;;;;;0.55;0.55;;;13.90;99.90;;;;;;5055310;28;20511;-76
2022/09/03 04:50:53;;;;;;;1.17;0.65;;;13.90;99.90;;;;;;5062470;23;20033;-72
2022/09/03 04:53:20;;;;;;;0.63;0.63;;;14.00;99.90;;;;;;5037450;28;20032;-72
2022/09/03 04:55:46;;;;;;;0.10;0.10;;;14.10;99.90;;;;;;5055534;28;20043;-72
2022/09/03 04:58:11;;;;;;;0.20;0.20;;;14.20;99.90;;;;;;5055519;28;20091;-71
2022/09/03 05:00:37;;;;;;;1.55;1.27;;;14.20;99.90;;;;;;5055764;28;20426;-72
2022/09/03 05:03:06;;;;;;;0.10;0.10;;;14.20;99.90;;;;;;5055457;28;20100;-72
2022/09/03 05:05:32;;;;;;;0.10;0.10;;;14.20;99.90;;;;;;5037457;28;20476;-72
2022/09/03 05:08:00;;;;;;;0.20;0.20;;;14.20;99.90;;;;;;5020915;28;20071;-72
2022/09/03 05:10:26;;;;;;;0.20;0.20;;;14.10;99.90;;;;;;5055095;28;20076;-72
2022/09/03 05:12:58;;;;;;;0.13;0.13;;;14.00;99.90;;;;;;5055636;28;20017;-71
2022/09/03 05:15:24;;;;;;;0.10;0.10;;;14.00;99.90;;;;;;5055062;28;20119;-72
2022/09/03 05:17:55;;;;;;;0.35;0.35;;;14.20;99.90;;;;;;5055446;28;20471;-72
2022/09/03 05:20:21;;;;;;;0.10;0.10;;;14.10;99.90;;;;;;5037133;28;20500;-72
2022/09/03 05:22:47;;;;;;;0.10;0.10;;;14.30;99.90;;;;;;5055192;28;20053;-72
2022/09/03 05:25:13;;;;;;;0.20;0.20;;;14.40;99.90;;;;;;5055173;28;20033;-72
2022/09/03 05:27:39;;;;;;;0.20;0.20;;;14.40;99.90;;;;;;5035995;28;20031;-72
2022/09/03 05:30:06;;;;;;;0.10;0.10;;;14.30;99.90;;;;;;5037089;28;20025;-72
2022/09/03 05:32:31;;;;;;;0.10;0.10;;;14.40;99.90;;;;;;5054868;28;20052;-72
2022/09/03 05:34:57;;;;;;;0.10;0.10;;;14.50;99.90;;;;;;5036901;28;20029;-72
2022/09/03 05:37:23;;;;;;;0.13;0.13;;;14.80;99.90;;;;;;5036805;28;20064;-72
2022/09/03 05:39:49;;;;;;;0.38;0.25;;;14.90;99.90;;;;;;5054750;28;20036;-72
2022/09/03 05:42:14;;;;;;;0.15;0.15;;;14.90;99.90;;;;;;5054750;28;20021;-72
2022/09/03 05:44:40;;;;;;;0.30;0.30;;;14.90;99.90;;;;;;5054910;28;20021;-72
2022/09/03 05:47:06;;;;;;;0.10;0.10;;;14.80;99.90;;;;;;5054706;28;20036;-71
2022/09/03 05:49:32;;;;;;;0.10;0.10;;;14.90;99.90;;;;;;5036653;28;20025;-71
2022/09/03 05:51:57;;;;;;;0.28;0.28;;;15.10;99.90;;;;;;5036587;28;20028;-72
2022/09/03 05:54:23;;;;;;;0.03;0.03;;;15.30;99.90;;;;;;5054548;28;20476;-72
2022/09/03 05:56:49;;;;;;;0.10;0.10;;;15.50;99.90;;;;;;5036547;28;20028;-72
2022/09/03 05:59:15;;;;;;;0.10;0.10;;;15.70;99.90;;;;;;5038588;28;20503;-72
2022/09/03 06:01:43;;;;;;;0.00;0.00;;;15.90;99.90;;;;;;5058167;28;20016;-72
2022/09/03 06:04:15;;;;;;;0.10;0.10;;;16.10;99.90;;;;;;5056450;28;20047;-72
2022/09/03 06:06:43;;;;;;;0.00;0.00;;;16.30;99.90;;;;;;5056476;28;20021;-72
2022/09/03 06:09:18;;;;;;;0.10;0.10;;;16.50;99.90;;;;;;5074285;28;20031;-72
2022/09/03 06:11:45;;;;;;;0.15;0.15;;;16.60;99.90;;;;;;5056414;28;20108;-74
2022/09/03 06:14:13;;;;;;;0.10;0.10;;;16.70;99.90;;;;;;5073958;28;20028;-72
2022/09/03 06:16:41;;;;;;;0.50;0.50;;;16.60;99.90;;;;;;5056201;28;20025;-72
2022/09/03 06:19:09;;;;;;;0.30;0.30;;;16.50;99.90;;;;;;5056043;28;20036;-72
2022/09/03 06:21:41;;;;;;;0.05;0.05;;;16.50;99.90;;;;;;5074415;28;20023;-73
2022/09/03 06:24:11;;;;;;;;;;;16.70;99.90;;;;;;5074357;28;20115;-73
2022/09/03 06:26:38;;;;;;;0.75;0.40;;;17.00;99.90;;;;;;5055963;28;19951;-73
2022/09/03 06:29:03;;;;;;;0.68;0.68;;;17.20;99.90;;;;;;5055981;28;20025;-73
2022/09/03 06:31:30;;;;;;;0.38;0.38;;;17.30;99.90;;;;;;5073843;28;20025;-73
2022/09/03 06:33:55;;;;;;;0.10;0.10;;;17.40;99.90;;;;;;5055917;28;20105;-73
2022/09/03 06:36:23;;;;;;;0.65;0.55;;;17.30;99.90;;;;;;5055589;28;20032;-73
2022/09/03 06:38:54;;;;;;;0.10;0.10;;;17.10;99.90;;;;;;5066061;28;20083;-73
2022/09/03 06:41:26;;;;;;;0.32;0.32;;;17.20;99.90;;;;;;5055271;28;20033;-73
2022/09/03 06:43:57;;;;;;;0.98;0.75;;;17.30;99.90;;;;;;5074212;28;20380;-73
2022/09/03 06:46:23;;;;;;;;;;;17.30;99.90;;;;;;5056232;28;20024;-73
2022/09/03 06:48:50;;;;;;;0.43;0.43;;;17.10;99.90;;;;;;5073551;28;19987;-72
2022/09/03 06:51:25;;;;;;;1.60;1.20;;;17.00;99.90;;;;;;5055561;28;20275;-73
2022/09/03 06:53:53;;;;;;;0.95;0.95;;;16.90;99.90;;;;;;5055645;28;20111;-73
2022/09/03 06:56:25;;;;;;;0.40;0.40;;;16.90;99.90;;;;;;5073274;28;20479;-73
2022/09/03 06:58:55;;;;;;;0.10;0.10;;;17.00;99.90;;;;;;5073398;28;20028;-73
2022/09/03 07:01:32;;;;;;;0.10;0.10;;;17.10;99.90;;;;;;5073433;28;20434;-73
2022/09/03 07:04:00;;;;;;;0.15;0.15;;;17.20;99.90;;;;;;5055079;28;20028;-73
2022/09/03 07:06:31;;;;;;;0.10;0.10;;;17.50;99.90;;;;;;5073165;28;20028;-73
2022/09/03 07:08:58;;;;;;;0.55;0.55;;;17.60;99.90;;;;;;5073113;28;20028;-73
2022/09/03 07:11:28;;;;;;;0.20;0.20;;;17.70;99.90;;;;;;5038661;28;20043;-73
2022/09/03 07:13:54;;;;;;;0.32;0.25;;;17.70;99.90;;;;;;5055017;28;20051;-73
2022/09/03 07:16:26;;;;;;;0.13;0.13;;;17.90;99.90;;;;;;5072872;28;20021;-73
2022/09/03 07:18:52;;;;;;;;;;;17.90;99.90;;;;;;5073257;28;20048;-73
2022/09/03 07:21:20;;;;;;;0.88;0.55;;;17.90;99.90;;;;;;5054801;28;19931;-73
2022/09/03 07:23:46;;;;;;;0.60;0.52;;;17.80;99.90;;;;;;5072638;28;20067;-73
2022/09/03 07:26:15;;;;;;;0.10;0.10;;;17.90;99.90;;;;;;5073099;28;20016;-73
2022/09/03 07:28:42;;;;;;;0.10;0.10;;;18.20;99.90;;;;;;5072648;28;20047;-73
2022/09/03 07:31:30;;;;;;;0.03;0.03;;;18.20;99.90;;;;;;5054877;28;20387;-73
2022/09/03 07:34:04;;;;;;;0.05;0.05;;;18.30;99.90;;;;;;5072502;28;20035;-73
2022/09/03 07:36:30;;;;;;;1.20;0.80;;;18.50;99.90;;;;;;5054704;28;20063;-73
2022/09/03 07:38:58;;;;;;;0.10;0.10;;;18.50;99.90;;;;;;5072665;28;20031;-73
2022/09/03 07:41:25;;;;;;;0.10;0.10;;;18.50;99.90;;;;;;5054301;28;20028;-73
2022/09/03 07:43:52;;;;;;;0.68;0.68;;;18.40;99.90;;;;;;5052469;28;20029;-73
2022/09/03 07:46:23;;;;;;;0.00;0.00;;;18.40;99.90;;;;;;5052588;28;20021;-73
2022/09/03 07:48:51;;;;;;;0.10;0.10;;;18.60;99.90;;;;;;5052174;28;20499;-73
2022/09/03 07:51:18;;;;;;;0.10;0.10;;;18.90;99.90;;;;;;5034376;28;20090;-73
2022/09/03 07:53:45;;;;;;;0.10;0.10;;;19.00;99.90;;;;;;5052294;28;20031;-73
2022/09/03 07:56:12;;;;;;;1.38;1.35;;;19.20;99.90;;;;;;5034680;28;20029;-73
2022/09/03 07:58:40;;;;;;;0.00;0.00;;;19.30;99.90;;;;;;5034637;28;20025;-73
2022/09/03 08:01:15;;;;;;;3.42;1.10;;;19.40;99.90;;;;;;5052165;28;20060;-73
2022/09/03 08:03:48;;;;;;;0.08;0.08;;;19.60;99.90;;;;;;5052180;28;20029;-73
2022/09/03 08:06:16;;;;;;;0.10;0.10;;;19.70;99.90;;;;;;5034163;28;20029;-73
2022/09/03 08:08:45;;;;;;;0.10;0.10;;;19.50;99.90;;;;;;5052335;28;20670;-73
2022/09/03 08:11:14;;;;;;;0.13;0.13;;;19.60;99.90;;;;;;5052098;28;20022;-73
2022/09/03 08:14:01;;;;;;;0.10;0.10;;;19.80;99.90;;;;;;5051920;28;20021;-73
2022/09/03 08:16:33;;;;;;;1.25;0.60;;;19.80;99.90;;;;;;5051558;28;20031;-73
2022/09/03 08:18:59;;;;;;;2.60;1.02;;;20.00;99.90;;;;;;5034314;28;20053;-73
2022/09/03 08:21:25;;;;;;;0.10;0.10;;;19.70;99.90;;;;;;5052009;28;20103;-73
2022/09/03 08:23:54;;;;;;;0.15;0.15;;;19.60;99.90;;;;;;5052110;28;20025;-73
2022/09/03 08:26:21;;;;;;;0.00;0.00;;;19.70;99.90;;;;;;5034122;28;20026;-73
2022/09/03 08:28:47;;;;;;;0.10;0.05;;;19.90;99.90;;;;;;5051805;28;20037;-73
2022/09/03 08:31:18;;;;;;;0.10;0.10;;;19.90;99.90;;;;;;5052015;28;20129;-73
2022/09/03 08:33:49;;;;;;;0.00;0.00;;;20.20;99.90;;;;;;5051864;28;20025;-73
2022/09/03 08:36:24;;;;;;;0.10;0.10;;;20.40;99.90;;;;;;5034335;28;20086;-73
2022/09/03 08:39:02;;;;;;;0.52;0.52;;;20.60;99.90;;;;;;5034391;28;20093;-74
2022/09/03 08:41:49;;;;;;;0.00;0.00;;;20.60;99.90;;;;;;5034845;28;20447;-75
2022/09/03 08:44:33;;;;;;;0.10;0.10;;;20.60;99.90;;;;;;5017453;28;20055;-73
2022/09/03 08:47:20;;;;;;;0.00;0.00;;;20.70;99.90;;;;;;5049935;28;20084;-73
2022/09/03 08:49:56;;;;;;;5.53;0.75;;;20.50;99.90;;;;;;5050265;28;20040;-73
2022/09/03 08:52:47;;;;;;;0.38;0.30;;;20.50;99.90;;;;;;5032014;28;20044;-72
2022/09/03 08:55:19;;;;;;;0.10;0.10;;;20.40;99.90;;;;;;5050147;28;20017;-73
2022/09/03 08:57:51;;;;;;;6.40;1.10;;;20.80;99.90;;;;;;5032459;28;20021;-73
2022/09/03 09:00:18;;;;;;;0.32;0.32;;;20.90;99.90;;;;;;5032945;28;20021;-72
2022/09/03 09:03:07;;;;;;;0.00;0.00;;;20.90;99.90;;;;;;5054428;28;20037;-73
2022/09/03 09:05:54;;;;;;;0.00;0.00;;;21.10;99.90;;;;;;5055315;28;20033;-72
2022/09/03 09:08:47;;;;;;;0.08;0.08;;;21.50;99.90;;;;;;5037552;28;20025;-73
2022/09/03 09:11:41;;;;;;;0.00;0.00;;;22.00;99.90;;;;;;5037641;28;20021;-73
2022/09/03 09:14:35;;;;;;;3.63;0.45;;;22.20;99.90;;;;;;5055164;28;20499;-73
2022/09/03 09:17:30;;;;;;;0.00;0.00;;;22.70;99.90;;;;;;5054967;28;20025;-73
2022/09/03 09:20:04;;;;;;;0.00;0.00;;;23.20;99.90;;;;;;5054979;28;20032;-73
2022/09/03 09:22:38;;;;;;;0.00;0.00;;;23.60;99.90;;;;;;5054922;28;20388;-73
2022/09/03 09:25:18;;;;;;;0.00;0.00;;;23.80;97.10;;;;;;5055002;28;20388;-73
2022/09/03 09:28:09;;;;;;;0.35;0.35;;;24.10;93.50;;;;;;5037172;28;20028;-73
2022/09/03 09:30:35;;;;;;;;;;;24.60;90.70;;;;;;5037338;28;20021;-73
2022/09/03 09:33:01;;;;;;;0.43;0.43;;;24.20;90.30;;;;;;5036805;28;19905;-73
2022/09/03 09:35:27;;;;;;;0.32;0.32;;;23.70;90.60;;;;;;5054825;28;20029;-73
2022/09/03 09:37:56;;;;;;;0.00;0.00;;;23.30;91.70;;;;;;5054621;28;20111;-73
2022/09/03 09:40:26;;;;;;;0.00;0.00;;;23.50;91.50;;;;;;5055574;28;20005;-74
2022/09/03 09:43:10;;;;;;;0.10;0.10;;;23.40;91.50;;;;;;5036629;28;20040;-74
2022/09/03 09:45:44;;;;;;;0.20;0.20;;;23.40;90.50;;;;;;5033083;28;20393;-74
2022/09/03 09:48:28;;;;;;;0.10;0.10;;;23.20;90.40;;;;;;5052377;28;20469;-74
2022/09/03 09:51:25;;;;;;;0.00;0.00;;;22.90;91.40;;;;;;5054354;28;20041;-74
2022/09/03 09:54:11;;;;;;;0.30;0.30;;;23.00;91.40;;;;;;5024781;28;20496;-74
2022/09/03 09:56:37;;;;;;;0.35;0.35;;;23.10;91.20;;;;;;5054404;28;20507;-73
2022/09/03 09:59:08;;;;;;;0.30;0.20;;;22.60;92.00;;;;;;5036319;28;20021;-73
2022/09/03 10:01:38;;;;;;;;;;;22.60;92.50;;;;;;5036830;28;20111;-74
2022/09/03 10:04:23;;;;;;;0.00;0.00;;;22.70;92.60;;;;;;5036266;28;19939;-74
2022/09/03 10:07:03;;;;;;;0.00;0.00;;;22.70;92.40;;;;;;5019727;28;20025;-73
2022/09/03 10:09:31;;;;;;;0.00;0.00;;;22.70;92.10;;;;;;5054161;28;20025;-73
2022/09/03 10:12:23;;;;;;;0.70;0.70;;;22.60;92.40;;;;;;5035711;28;20048;-74
2022/09/03 10:14:57;;;;;;;0.00;0.00;;;22.80;91.80;;;;;;5054044;28;20423;-74
2022/09/03 10:18:00;;;;;;;0.45;0.45;;;23.70;91.00;;;;;;5036095;28;20028;-74
2022/09/03 10:20:50;;;;;;;0.10;0.10;;;24.50;88.70;;;;;;5036224;28;20393;-73
2022/09/03 10:23:27;;;;;;;0.20;0.10;;;24.90;86.30;;;;;;5019696;28;20032;-73
2022/09/03 10:25:56;;;;;;;0.28;0.28;;;25.30;82.90;;;;;;5053770;28;20430;-74
2022/09/03 10:28:28;;;;;;;0.00;0.00;;;25.60;80.40;;;;;;5054077;28;20048;-74
2022/09/03 10:30:54;;;;;;;;;;;26.10;80.00;;;;;;5019830;28;20024;-74
2022/09/03 10:33:27;;;;;;;2.45;0.80;;;26.80;77.60;;;;;;5019368;28;20315;-74
2022/09/03 10:36:22;;;;;;;0.00;0.00;;;27.30;74.40;;;;;;5053706;28;20376;-74
2022/09/03 10:38:58;;;;;;;0.00;0.00;;;27.80;72.10;;;;;;5053749;28;20039;-73
2022/09/03 10:41:50;;;;;;;0.17;0.17;;;27.50;70.70;;;;;;5035813;28;20082;-74
2022/09/03 10:44:51;;;;;;;0.00;0.00;;;27.30;71.40;;;;;;5035350;28;20182;-74
2022/09/03 10:47:55;;;;;;;0.00;0.00;;;26.90;72.50;;;;;;5032505;28;20067;-74
2022/09/03 10:50:37;;;;;;;0.80;0.38;;;27.00;70.70;;;;;;5066791;22;20045;-73
2022/09/03 10:53:21;;;;;;;0.20;0.20;;;27.20;71.50;;;;;;5018040;28;20021;-72
2022/09/03 10:56:07;;;;;;;0.00;0.00;;;27.30;70.10;;;;;;5052925;28;20077;-73
2022/09/03 10:58:44;;;;;;;2.55;0.63;;;27.60;69.30;;;;;;5035172;28;20035;-73
2022/09/03 11:01:09;;;;;;;0.30;0.30;;;27.40;69.50;;;;;;5035032;28;20048;-72
2022/09/03 11:03:47;;;;;;;0.17;0.17;;;27.50;68.40;;;;;;5052764;28;20052;-73
2022/09/03 11:06:19;;;;;;;0.00;0.00;;;28.10;66.90;;;;;;5052582;28;20416;-72
2022/09/03 11:09:02;;;;;;;0.20;0.20;;;28.30;64.90;;;;;;5052644;28;20017;-73
2022/09/03 11:11:41;;;;;;;0.57;0.55;;;27.90;66.10;;;;;;5034675;28;20024;-73
2022/09/03 11:14:14;;;;;;;0.60;0.60;;;27.20;66.90;;;;;;5052597;28;20025;-72
2022/09/03 11:16:47;;;;;;;0.43;0.43;;;26.10;68.80;;;;;;5034563;28;20059;-73
2022/09/03 11:19:17;;;;;;;0.00;0.00;;;25.60;71.40;;;;;;5034856;28;20412;-72
2022/09/03 11:21:43;;;;;;;0.00;0.00;;;25.40;72.30;;;;;;5052393;28;20025;-72
2022/09/03 11:24:17;;;;;;;0.20;0.20;;;25.10;73.00;;;;;;5017188;28;20438;-72
2022/09/03 11:26:47;;;;;;;0.00;0.00;;;25.10;73.20;;;;;;5052160;28;20473;-72
2022/09/03 11:29:22;;;;;;;0.20;0.20;;;25.20;72.90;;;;;;5052312;28;20055;-72
2022/09/03 11:31:56;;;;;;;0.13;0.13;;;25.60;72.30;;;;;;5052156;28;20028;-73
2022/09/03 11:34:31;;;;;;;0.00;0.00;;;26.30;69.40;;;;;;5034533;28;20051;-72
2022/09/03 11:37:24;;;;;;;0.38;0.38;;;26.80;68.90;;;;;;5051976;28;20538;-72
2022/09/03 11:40:18;;;;;;;0.20;0.20;;;27.50;66.80;;;;;;5034390;28;20055;-73
2022/09/03 11:42:44;;;;;;;0.00;0.00;;;27.80;64.50;;;;;;5052001;28;20029;-73
2022/09/03 11:45:22;;;;;;;0.60;0.60;;;27.20;66.00;;;;;;5051795;28;20047;-73
2022/09/03 11:47:49;;;;;;;0.00;0.00;;;26.80;67.20;;;;;;5052480;28;20024;-73
2022/09/03 11:50:19;;;;;;;0.00;0.00;;;26.50;68.70;;;;;;5051971;28;20021;-73
2022/09/03 11:52:47;;;;;;;0.20;0.20;;;26.80;69.70;;;;;;5017541;28;20044;-73
2022/09/03 11:55:46;;;;;;;0.63;0.63;;;27.10;66.60;;;;;;5033771;28;20029;-73
2022/09/03 11:58:24;;;;;;;0.40;0.30;;;27.00;67.50;;;;;;5052090;28;20032;-73
2022/09/03 12:00:52;;;;;;;0.20;0.20;;;27.30;66.70;;;;;;5034007;28;20391;-73
2022/09/03 12:03:26;;;;;;;0.00;0.00;;;27.70;65.30;;;;;;5033846;28;20032;-74
2022/09/03 12:06:07;;;;;;;0.15;0.15;;;28.10;64.20;;;;;;5033699;28;20067;-74
2022/09/03 12:08:55;;;;;;;0.00;0.00;;;28.10;64.00;;;;;;5034184;28;20493;-74
2022/09/03 12:11:38;;;;;;;2.28;1.10;;;28.10;64.70;;;;;;5033753;28;20396;-73
2022/09/03 12:14:22;;;;;;;0.00;0.00;;;27.20;65.80;;;;;;5017428;28;20480;-74
2022/09/03 12:17:18;;;;;;;0.20;0.20;;;26.70;67.60;;;;;;5033643;28;20021;-73
2022/09/03 12:19:54;;;;;;;0.00;0.00;;;26.50;68.10;;;;;;5051651;28;20389;-73
2022/09/03 12:22:22;;;;;;;0.03;0.03;;;26.20;68.50;;;;;;5051531;28;20035;-73
2022/09/03 12:24:49;;;;;;;0.00;0.00;;;26.20;69.40;;;;;;5033772;28;20033;-73
2022/09/03 12:27:23;;;;;;;0.10;0.10;;;26.40;69.40;;;;;;5051519;28;20021;-74
2022/09/03 12:29:59;;;;;;;0.00;0.00;;;26.30;68.80;;;;;;5051597;28;20104;-74
2022/09/03 12:32:37;;;;;;;1.95;1.85;;;26.20;69.00;;;;;;5051494;28;20096;-73
2022/09/03 12:35:16;;;;;;;1.00;0.65;;;26.20;70.00;;;;;;5051582;28;20029;-73
2022/09/03 12:37:44;;;;;;;0.00;0.00;;;25.90;70.20;;;;;;5037730;28;20060;-73
2022/09/03 12:40:22;;;;;;;0.00;0.00;;;26.10;70.60;;;;;;5055413;28;20043;-73
2022/09/03 12:42:48;;;;;;;1.10;0.73;;;26.80;68.70;;;;;;5037737;28;20139;-74
2022/09/03 12:45:22;;;;;;;0.05;0.05;;;27.00;67.80;;;;;;5055120;28;20111;-73
2022/09/03 12:47:48;;;;;;;1.20;0.55;;;27.10;68.70;;;;;;5055335;28;20104;-73
2022/09/03 12:50:16;;;;;;;1.33;1.02;;;26.90;67.70;;;;;;5037194;28;20021;-73
2022/09/03 12:52:49;;;;;;;0.40;0.40;;;26.70;67.30;;;;;;5037248;28;20022;-73
2022/09/03 12:55:27;;;;;;;0.00;0.00;;;26.70;67.80;;;;;;5020552;28;20053;-74
2022/09/03 12:58:02;;;;;;;0.00;0.00;;;26.30;69.40;;;;;;5037269;28;20025;-73
2022/09/03 13:00:30;;;;;;;0.10;0.10;;;25.80;69.80;;;;;;5037137;28;20085;-73
2022/09/03 13:03:11;;;;;;;0.10;0.10;;;26.00;68.90;;;;;;5054947;28;20029;-73
2022/09/03 13:05:43;;;;;;;0.35;0.28;;;25.80;68.90;;;;;;5054684;28;20112;-73
2022/09/03 13:08:13;;;;;;;;;;;25.80;69.40;;;;;;5037443;28;20040;-73
2022/09/03 13:10:41;;;;;;;0.00;0.00;;;25.60;69.80;;;;;;5036998;28;19905;-73
2022/09/03 13:13:28;;;;;;;0.10;0.10;;;25.60;70.00;;;;;;5036806;28;20032;-73
2022/09/03 13:15:59;;;;;;;0.10;0.10;;;25.40;71.20;;;;;;5036759;28;20078;-73
2022/09/03 13:18:45;;;;;;;0.00;0.00;;;25.30;72.70;;;;;;5054949;28;20078;-73
2022/09/03 13:21:28;;;;;;;0.20;0.20;;;25.40;72.30;;;;;;5006898;28;20489;-73